sensor_id;sensor_type;location;lat;lon;timestamp;temperature;humidity
16076;DHT22;8142;48.242;11.644;2023-10-19T00:01:10;9.50;99.90
16076;DHT22;8142;48.242;11.644;2023-10-19T00:03:36;9.60;99.90
16076;DHT22;8142;48.242;11.644;2023-10-19T00:06:02;9.50;99.90
16076;DHT22;8142;48.242;11.644;2023-10-19T00:08:28;9.60;99.90
16076;DHT22;8142;48.242;11.644;2023-10-19T00:11:06;9.50;99.90
16076;DHT22;8142;48.242;11.644;2023-10-19T00:13:37;9.50;99.90
16076;DHT22;8142;48.242;11.644;2023-10-19T00:16:09;9.50;99.90
16076;DHT22;8142;48.242;11.644;2023-10-19T00:18:48;9.50;99.90
16076;DHT22;8142;48.242;11.644;2023-10-19T00:21:15;9.50;99.90
16076;DHT22;8142;48.242;11.644;2023-10-19T00:23:54;9.50;99.90
16076;DHT22;8142;48.242;11.644;2023-10-19T00:26:24;9.50;99.90
16076;DHT22;8142;48.242;11.644;2023-10-19T00:28:55;9.50;99.90
16076;DHT22;8142;48.242;11.644;2023-10-19T00:31:26;9.50;99.90
16076;DHT22;8142;48.242;11.644;2023-10-19T00:33:54;9.40;99.90
16076;DHT22;8142;48.242;11.644;2023-10-19T00:36:21;9.40;99.90
16076;DHT22;8142;48.242;11.644;2023-10-19T00:38:48;9.40;99.90
16076;DHT22;8142;48.242;11.644;2023-10-19T00:41:25;9.40;99.90
16076;DHT22;8142;48.242;11.644;2023-10-19T00:43:59;9.50;99.90
16076;DHT22;8142;48.242;11.644;2023-10-19T00:46:29;9.40;99.90
16076;DHT22;8142;48.242;11.644;2023-10-19T00:49:03;9.40;99.90
16076;DHT22;8142;48.242;11.644;2023-10-19T00:51:39;9.40;99.90
16076;DHT22;8142;48.242;11.644;2023-10-19T00:54:26;9.40;99.90
16076;DHT22;8142;48.242;11.644;2023-10-19T00:57:02;9.40;99.90
16076;DHT22;8142;48.242;11.644;2023-10-19T00:59:41;9.40;99.90
16076;DHT22;8142;48.242;11.644;2023-10-19T01:02:20;9.40;99.90
16076;DHT22;8142;48.242;11.644;2023-10-19T01:04:51;9.40;99.90
16076;DHT22;8142;48.242;11.644;2023-10-19T01:07:30;9.40;99.90
16076;DHT22;8142;48.242;11.644;2023-10-19T01:10:01;9.40;99.90
16076;DHT22;8142;48.242;11.644;2023-10-19T01:12:37;9.40;99.90
16076;DHT22;8142;48.242;11.644;2023-10-19T01:15:21;9.40;99.90
16076;DHT22;8142;48.242;11.644;2023-10-19T01:18:02;9.40;99.90
16076;DHT22;8142;48.242;11.644;2023-10-19T01:20:30;9.40;99.90
16076;DHT22;8142;48.242;11.644;2023-10-19T01:23:00;9.40;99.90
16076;DHT22;8142;48.242;11.644;2023-10-19T01:28:08;9.50;99.90
16076;DHT22;8142;48.242;11.644;2023-10-19T01:30:35;9.50;99.90
16076;DHT22;8142;48.242;11.644;2023-10-19T01:33:05;9.50;99.90
16076;DHT22;8142;48.242;11.644;2023-10-19T01:35:42;9.50;99.90
16076;DHT22;8142;48.242;11.644;2023-10-19T01:38:30;9.50;99.90
16076;DHT22;8142;48.242;11.644;2023-10-19T01:41:07;9.50;99.90
16076;DHT22;8142;48.242;11.644;2023-10-19T01:43:43;9.50;99.90
16076;DHT22;8142;48.242;11.644;2023-10-19T01:46:11;9.50;99.90
16076;DHT22;8142;48.242;11.644;2023-10-19T01:48:39;9.40;99.90
16076;DHT22;8142;48.242;11.644;2023-10-19T01:51:09;9.50;99.90
16076;DHT22;8142;48.242;11.644;2023-10-19T01:53:42;9.50;99.90
16076;DHT22;8142;48.242;11.644;2023-10-19T01:56:13;9.50;99.90
16076;DHT22;8142;48.242;11.644;2023-10-19T01:58:41;9.60;99.90
16076;DHT22;8142;48.242;11.644;2023-10-19T02:01:08;9.50;99.90
16076;DHT22;8142;48.242;11.644;2023-10-19T02:03:55;9.60;99.90
16076;DHT22;8142;48.242;11.644;2023-10-19T02:06:26;9.50;99.90
16076;DHT22;8142;48.242;11.644;2023-10-19T02:09:10;9.50;99.90
16076;DHT22;8142;48.242;11.644;2023-10-19T02:11:53;9.50;99.90
16076;DHT22;8142;48.242;11.644;2023-10-19T02:14:21;9.50;99.90
16076;DHT22;8142;48.242;11.644;2023-10-19T02:16:48;9.50;99.90
16076;DHT22;8142;48.242;11.644;2023-10-19T02:19:17;9.50;99.90
16076;DHT22;8142;48.242;11.644;2023-10-19T02:21:43;9.50;99.90
16076;DHT22;8142;48.242;11.644;2023-10-19T02:24:10;9.50;99.90
16076;DHT22;8142;48.242;11.644;2023-10-19T02:26:43;9.60;99.90
16076;DHT22;8142;48.242;11.644;2023-10-19T02:29:09;9.60;99.90
16076;DHT22;8142;48.242;11.644;2023-10-19T02:31:40;9.60;99.90
16076;DHT22;8142;48.242;11.644;2023-10-19T02:34:07;9.60;99.90
16076;DHT22;8142;48.242;11.644;2023-10-19T02:36:36;9.60;99.90
16076;DHT22;8142;48.242;11.644;2023-10-19T02:39:04;9.60;99.90
16076;DHT22;8142;48.242;11.644;2023-10-19T02:41:38;9.60;99.90
16076;DHT22;8142;48.242;11.644;2023-10-19T02:44:08;9.60;99.90
16076;DHT22;8142;48.242;11.644;2023-10-19T02:46:54;9.60;99.90
16076;DHT22;8142;48.242;11.644;2023-10-19T02:49:25;9.70;99.90
16076;DHT22;8142;48.242;11.644;2023-10-19T02:51:52;9.60;99.90
16076;DHT22;8142;48.242;11.644;2023-10-19T02:54:20;9.70;99.90
16076;DHT22;8142;48.242;11.644;2023-10-19T02:56:51;9.60;99.90
16076;DHT22;8142;48.242;11.644;2023-10-19T02:59:20;9.70;99.90
16076;DHT22;8142;48.242;11.644;2023-10-19T03:01:54;9.60;99.90
16076;DHT22;8142;48.242;11.644;2023-10-19T03:04:27;9.60;99.90
16076;DHT22;8142;48.242;11.644;2023-10-19T03:06:54;9.50;99.90
16076;DHT22;8142;48.242;11.644;2023-10-19T03:09:22;9.40;99.90
16076;DHT22;8142;48.242;11.644;2023-10-19T03:11:54;9.20;99.90
16076;DHT22;8142;48.242;11.644;2023-10-19T03:14:25;9.00;99.90
16076;DHT22;8142;48.242;11.644;2023-10-19T03:16:52;8.80;99.90
16076;DHT22;8142;48.242;11.644;2023-10-19T03:19:20;8.70;99.90
16076;DHT22;8142;48.242;11.644;2023-10-19T03:21:46;8.50;99.90
16076;DHT22;8142;48.242;11.644;2023-10-19T03:24:15;8.30;99.90
16076;DHT22;8142;48.242;11.644;2023-10-19T03:27:01;8.20;99.90
16076;DHT22;8142;48.242;11.644;2023-10-19T03:29:27;8.00;99.90
16076;DHT22;8142;48.242;11.644;2023-10-19T03:31:58;7.90;99.90
16076;DHT22;8142;48.242;11.644;2023-10-19T03:34:27;7.80;99.90
16076;DHT22;8142;48.242;11.644;2023-10-19T03:36:53;7.80;99.90
16076;DHT22;8142;48.242;11.644;2023-10-19T03:39:20;7.70;99.90
16076;DHT22;8142;48.242;11.644;2023-10-19T03:41:46;7.70;99.90
16076;DHT22;8142;48.242;11.644;2023-10-19T03:44:16;7.60;99.90
16076;DHT22;8142;48.242;11.644;2023-10-19T03:46:49;7.50;99.90
16076;DHT22;8142;48.242;11.644;2023-10-19T03:49:19;7.50;99.90
16076;DHT22;8142;48.242;11.644;2023-10-19T03:51:46;7.40;99.90
16076;DHT22;8142;48.242;11.644;2023-10-19T03:54:25;7.40;99.90
16076;DHT22;8142;48.242;11.644;2023-10-19T03:56:53;7.40;99.90
16076;DHT22;8142;48.242;11.644;2023-10-19T03:59:21;7.40;99.90
16076;DHT22;8142;48.242;11.644;2023-10-19T04:01:47;7.40;99.90
16076;DHT22;8142;48.242;11.644;2023-10-19T04:04:14;7.50;99.90
16076;DHT22;8142;48.242;11.644;2023-10-19T04:06:42;7.50;99.90
16076;DHT22;8142;48.242;11.644;2023-10-19T04:09:15;7.50;99.90
16076;DHT22;8142;48.242;11.644;2023-10-19T04:11:44;7.50;99.90
16076;DHT22;8142;48.242;11.644;2023-10-19T04:14:17;7.50;99.90
16076;DHT22;8142;48.242;11.644;2023-10-19T04:16:43;7.60;99.90
16076;DHT22;8142;48.242;11.644;2023-10-19T04:19:10;7.60;99.90
16076;DHT22;8142;48.242;11.644;2023-10-19T04:21:37;7.80;99.90
16076;DHT22;8142;48.242;11.644;2023-10-19T04:24:07;7.90;99.90
16076;DHT22;8142;48.242;11.644;2023-10-19T04:26:34;8.00;99.90
16076;DHT22;8142;48.242;11.644;2023-10-19T04:29:04;8.10;99.90
16076;DHT22;8142;48.242;11.644;2023-10-19T04:31:40;8.20;99.90
16076;DHT22;8142;48.242;11.644;2023-10-19T04:34:21;8.30;99.90
16076;DHT22;8142;48.242;11.644;2023-10-19T04:36:48;8.40;99.90
16076;DHT22;8142;48.242;11.644;2023-10-19T04:39:14;8.50;99.90
16076;DHT22;8142;48.242;11.644;2023-10-19T04:41:41;8.60;99.90
16076;DHT22;8142;48.242;11.644;2023-10-19T04:44:07;8.60;99.90
16076;DHT22;8142;48.242;11.644;2023-10-19T04:46:36;8.70;99.90
16076;DHT22;8142;48.242;11.644;2023-10-19T04:49:02;8.80;99.90
16076;DHT22;8142;48.242;11.644;2023-10-19T04:51:29;8.80;99.90
16076;DHT22;8142;48.242;11.644;2023-10-19T04:53:55;8.90;99.90
16076;DHT22;8142;48.242;11.644;2023-10-19T04:56:22;8.90;99.90
16076;DHT22;8142;48.242;11.644;2023-10-19T04:58:48;9.10;99.90
16076;DHT22;8142;48.242;11.644;2023-10-19T05:01:14;9.00;99.90
16076;DHT22;8142;48.242;11.644;2023-10-19T05:03:43;9.00;99.90
16076;DHT22;8142;48.242;11.644;2023-10-19T05:06:10;9.10;99.90
16076;DHT22;8142;48.242;11.644;2023-10-19T05:08:36;9.20;99.90
16076;DHT22;8142;48.242;11.644;2023-10-19T05:11:02;9.10;99.90
16076;DHT22;8142;48.242;11.644;2023-10-19T05:13:30;9.20;99.90
16076;DHT22;8142;48.242;11.644;2023-10-19T05:15:57;9.20;99.90
16076;DHT22;8142;48.242;11.644;2023-10-19T05:18:25;9.20;99.90
16076;DHT22;8142;48.242;11.644;2023-10-19T05:20:54;9.20;99.90
16076;DHT22;8142;48.242;11.644;2023-10-19T05:23:24;9.20;99.90
16076;DHT22;8142;48.242;11.644;2023-10-19T05:26:00;9.20;99.90
16076;DHT22;8142;48.242;11.644;2023-10-19T05:28:26;9.10;99.90
16076;DHT22;8142;48.242;11.644;2023-10-19T05:30:52;9.00;99.90
16076;DHT22;8142;48.242;11.644;2023-10-19T05:33:18;8.90;99.90
16076;DHT22;8142;48.242;11.644;2023-10-19T05:35:47;8.80;99.90
16076;DHT22;8142;48.242;11.644;2023-10-19T05:38:13;8.70;99.90
16076;DHT22;8142;48.242;11.644;2023-10-19T05:40:39;8.60;99.90
16076;DHT22;8142;48.242;11.644;2023-10-19T05:43:09;8.50;99.90
16076;DHT22;8142;48.242;11.644;2023-10-19T05:45:35;8.50;99.90
16076;DHT22;8142;48.242;11.644;2023-10-19T05:48:04;8.40;99.90
16076;DHT22;8142;48.242;11.644;2023-10-19T05:50:33;8.30;99.90
16076;DHT22;8142;48.242;11.644;2023-10-19T05:52:59;8.30;99.90
16076;DHT22;8142;48.242;11.644;2023-10-19T05:55:25;8.20;99.90
16076;DHT22;8142;48.242;11.644;2023-10-19T05:57:51;8.10;99.90
16076;DHT22;8142;48.242;11.644;2023-10-19T06:00:17;8.10;99.90
16076;DHT22;8142;48.242;11.644;2023-10-19T06:02:47;8.10;99.90
16076;DHT22;8142;48.242;11.644;2023-10-19T06:05:14;8.20;99.90
16076;DHT22;8142;48.242;11.644;2023-10-19T06:07:48;8.30;99.90
16076;DHT22;8142;48.242;11.644;2023-10-19T06:10:16;8.40;99.90
16076;DHT22;8142;48.242;11.644;2023-10-19T06:12:44;8.40;99.90
16076;DHT22;8142;48.242;11.644;2023-10-19T06:15:11;8.40;99.90
16076;DHT22;8142;48.242;11.644;2023-10-19T06:17:39;8.60;99.90
16076;DHT22;8142;48.242;11.644;2023-10-19T06:20:11;8.70;99.90
16076;DHT22;8142;48.242;11.644;2023-10-19T06:22:56;8.80;99.90
16076;DHT22;8142;48.242;11.644;2023-10-19T06:25:23;8.90;99.90
16076;DHT22;8142;48.242;11.644;2023-10-19T06:27:51;8.90;99.90
16076;DHT22;8142;48.242;11.644;2023-10-19T06:30:18;9.00;99.90
16076;DHT22;8142;48.242;11.644;2023-10-19T06:32:49;9.10;99.90
16076;DHT22;8142;48.242;11.644;2023-10-19T06:35:16;9.10;99.90
16076;DHT22;8142;48.242;11.644;2023-10-19T06:37:43;9.20;99.90
16076;DHT22;8142;48.242;11.644;2023-10-19T06:40:10;9.20;99.90
16076;DHT22;8142;48.242;11.644;2023-10-19T06:42:46;9.30;99.90
16076;DHT22;8142;48.242;11.644;2023-10-19T06:45:14;9.30;99.90
16076;DHT22;8142;48.242;11.644;2023-10-19T06:47:42;9.40;99.90
16076;DHT22;8142;48.242;11.644;2023-10-19T06:50:09;9.40;99.90
16076;DHT22;8142;48.242;11.644;2023-10-19T06:52:39;9.50;99.90
16076;DHT22;8142;48.242;11.644;2023-10-19T06:55:06;9.50;99.90
16076;DHT22;8142;48.242;11.644;2023-10-19T06:57:51;9.60;99.90
16076;DHT22;8142;48.242;11.644;2023-10-19T07:00:21;9.60;99.90
16076;DHT22;8142;48.242;11.644;2023-10-19T07:02:54;9.70;99.90
16076;DHT22;8142;48.242;11.644;2023-10-19T07:05:21;9.70;99.90
16076;DHT22;8142;48.242;11.644;2023-10-19T07:07:49;9.70;99.90
16076;DHT22;8142;48.242;11.644;2023-10-19T07:10:18;9.80;99.90
16076;DHT22;8142;48.242;11.644;2023-10-19T07:12:46;9.80;99.90
16076;DHT22;8142;48.242;11.644;2023-10-19T07:15:14;9.90;99.90
16076;DHT22;8142;48.242;11.644;2023-10-19T07:17:41;9.90;99.90
16076;DHT22;8142;48.242;11.644;2023-10-19T07:20:09;9.90;99.90
16076;DHT22;8142;48.242;11.644;2023-10-19T07:22:47;10.00;99.90
16076;DHT22;8142;48.242;11.644;2023-10-19T07:25:13;10.00;99.90
16076;DHT22;8142;48.242;11.644;2023-10-19T07:27:39;10.10;99.90
16076;DHT22;8142;48.242;11.644;2023-10-19T07:30:08;10.10;99.90
16076;DHT22;8142;48.242;11.644;2023-10-19T07:32:35;10.20;99.90
16076;DHT22;8142;48.242;11.644;2023-10-19T07:35:01;10.20;99.90
16076;DHT22;8142;48.242;11.644;2023-10-19T07:37:28;10.30;99.90
16076;DHT22;8142;48.242;11.644;2023-10-19T07:39:54;10.40;99.90
16076;DHT22;8142;48.242;11.644;2023-10-19T07:42:24;10.50;99.90
16076;DHT22;8142;48.242;11.644;2023-10-19T07:44:51;10.50;99.90
16076;DHT22;8142;48.242;11.644;2023-10-19T07:47:17;10.60;99.90
16076;DHT22;8142;48.242;11.644;2023-10-19T07:49:43;10.60;99.90
16076;DHT22;8142;48.242;11.644;2023-10-19T07:52:09;10.70;99.90
16076;DHT22;8142;48.242;11.644;2023-10-19T07:54:39;10.80;99.90
16076;DHT22;8142;48.242;11.644;2023-10-19T07:57:06;10.80;99.90
16076;DHT22;8142;48.242;11.644;2023-10-19T07:59:35;10.90;99.90
16076;DHT22;8142;48.242;11.644;2023-10-19T08:02:01;10.90;99.90
16076;DHT22;8142;48.242;11.644;2023-10-19T08:04:30;11.00;99.90
16076;DHT22;8142;48.242;11.644;2023-10-19T08:06:59;11.10;99.90
16076;DHT22;8142;48.242;11.644;2023-10-19T08:09:25;11.10;99.90
16076;DHT22;8142;48.242;11.644;2023-10-19T08:11:58;11.20;99.90
16076;DHT22;8142;48.242;11.644;2023-10-19T08:14:26;11.20;99.90
16076;DHT22;8142;48.242;11.644;2023-10-19T08:16:52;11.30;99.90
16076;DHT22;8142;48.242;11.644;2023-10-19T08:19:19;11.30;99.90
16076;DHT22;8142;48.242;11.644;2023-10-19T08:21:45;11.40;99.90
16076;DHT22;8142;48.242;11.644;2023-10-19T08:24:11;11.50;99.90
16076;DHT22;8142;48.242;11.644;2023-10-19T08:26:44;11.50;99.90
16076;DHT22;8142;48.242;11.644;2023-10-19T08:29:12;11.50;99.90
16076;DHT22;8142;48.242;11.644;2023-10-19T08:31:42;11.70;99.90
16076;DHT22;8142;48.242;11.644;2023-10-19T08:34:08;11.70;99.90
16076;DHT22;8142;48.242;11.644;2023-10-19T08:36:38;11.70;99.90
16076;DHT22;8142;48.242;11.644;2023-10-19T08:39:08;11.70;99.90
16076;DHT22;8142;48.242;11.644;2023-10-19T08:41:36;11.80;99.90
16076;DHT22;8142;48.242;11.644;2023-10-19T08:44:07;11.80;99.90
16076;DHT22;8142;48.242;11.644;2023-10-19T08:46:40;11.90;99.90
16076;DHT22;8142;48.242;11.644;2023-10-19T08:49:10;12.00;99.90
16076;DHT22;8142;48.242;11.644;2023-10-19T08:51:38;12.00;99.90
16076;DHT22;8142;48.242;11.644;2023-10-19T08:54:05;12.00;99.90
16076;DHT22;8142;48.242;11.644;2023-10-19T08:56:32;12.10;99.90
16076;DHT22;8142;48.242;11.644;2023-10-19T08:59:00;12.10;99.90
16076;DHT22;8142;48.242;11.644;2023-10-19T09:01:27;12.20;99.90
16076;DHT22;8142;48.242;11.644;2023-10-19T09:03:57;12.20;99.90
16076;DHT22;8142;48.242;11.644;2023-10-19T09:06:25;12.30;99.90
16076;DHT22;8142;48.242;11.644;2023-10-19T09:08:51;12.30;99.90
16076;DHT22;8142;48.242;11.644;2023-10-19T09:11:19;12.40;99.90
16076;DHT22;8142;48.242;11.644;2023-10-19T09:13:52;12.40;99.90
16076;DHT22;8142;48.242;11.644;2023-10-19T09:16:20;12.40;99.90
16076;DHT22;8142;48.242;11.644;2023-10-19T09:18:47;12.50;99.90
16076;DHT22;8142;48.242;11.644;2023-10-19T09:21:17;12.50;99.90
16076;DHT22;8142;48.242;11.644;2023-10-19T09:23:53;12.60;99.90
16076;DHT22;8142;48.242;11.644;2023-10-19T09:26:20;12.70;99.90
16076;DHT22;8142;48.242;11.644;2023-10-19T09:28:51;12.60;99.90
16076;DHT22;8142;48.242;11.644;2023-10-19T09:31:18;12.70;99.90
16076;DHT22;8142;48.242;11.644;2023-10-19T09:33:47;12.70;99.90
16076;DHT22;8142;48.242;11.644;2023-10-19T09:36:15;12.80;99.90
16076;DHT22;8142;48.242;11.644;2023-10-19T09:38:46;12.80;99.90
16076;DHT22;8142;48.242;11.644;2023-10-19T09:41:20;12.90;99.90
16076;DHT22;8142;48.242;11.644;2023-10-19T09:43:49;12.90;99.90
16076;DHT22;8142;48.242;11.644;2023-10-19T09:46:23;12.90;99.90
16076;DHT22;8142;48.242;11.644;2023-10-19T09:48:49;13.00;99.90
16076;DHT22;8142;48.242;11.644;2023-10-19T09:51:17;13.00;99.90
16076;DHT22;8142;48.242;11.644;2023-10-19T09:53:49;12.90;99.90
16076;DHT22;8142;48.242;11.644;2023-10-19T09:56:24;13.10;99.90
16076;DHT22;8142;48.242;11.644;2023-10-19T09:59:02;13.10;99.90
16076;DHT22;8142;48.242;11.644;2023-10-19T10:02:11;13.10;99.90
16076;DHT22;8142;48.242;11.644;2023-10-19T10:04:39;13.10;99.90
16076;DHT22;8142;48.242;11.644;2023-10-19T10:07:07;13.10;99.90
16076;DHT22;8142;48.242;11.644;2023-10-19T10:09:40;13.10;99.90
16076;DHT22;8142;48.242;11.644;2023-10-19T10:12:25;13.20;99.90
16076;DHT22;8142;48.242;11.644;2023-10-19T10:15:05;13.20;99.90
16076;DHT22;8142;48.242;11.644;2023-10-19T10:17:39;13.30;99.90
16076;DHT22;8142;48.242;11.644;2023-10-19T10:23:19;13.40;99.90
16076;DHT22;8142;48.242;11.644;2023-10-19T10:25:50;13.40;99.90
16076;DHT22;8142;48.242;11.644;2023-10-19T10:28:20;13.50;99.90
16076;DHT22;8142;48.242;11.644;2023-10-19T10:31:22;13.50;99.90
16076;DHT22;8142;48.242;11.644;2023-10-19T10:33:51;13.60;99.90
16076;DHT22;8142;48.242;11.644;2023-10-19T10:36:19;13.70;99.90
16076;DHT22;8142;48.242;11.644;2023-10-19T10:38:46;13.70;99.90
16076;DHT22;8142;48.242;11.644;2023-10-19T10:41:18;13.70;99.90
16076;DHT22;8142;48.242;11.644;2023-10-19T10:43:55;13.80;99.90
16076;DHT22;8142;48.242;11.644;2023-10-19T10:46:22;13.80;99.90
16076;DHT22;8142;48.242;11.644;2023-10-19T10:48:48;13.80;99.90
16076;DHT22;8142;48.242;11.644;2023-10-19T10:51:16;13.90;99.90
16076;DHT22;8142;48.242;11.644;2023-10-19T10:53:42;13.90;99.90
16076;DHT22;8142;48.242;11.644;2023-10-19T10:56:07;13.90;99.90
16076;DHT22;8142;48.242;11.644;2023-10-19T10:58:33;14.00;99.90
16076;DHT22;8142;48.242;11.644;2023-10-19T11:00:59;14.10;99.90
16076;DHT22;8142;48.242;11.644;2023-10-19T11:03:26;14.10;99.90
16076;DHT22;8142;48.242;11.644;2023-10-19T11:06:02;14.10;99.90
16076;DHT22;8142;48.242;11.644;2023-10-19T11:08:28;14.10;99.90
16076;DHT22;8142;48.242;11.644;2023-10-19T11:10:54;14.20;99.90
16076;DHT22;8142;48.242;11.644;2023-10-19T11:13:27;14.20;99.90
16076;DHT22;8142;48.242;11.644;2023-10-19T11:15:55;14.30;99.90
16076;DHT22;8142;48.242;11.644;2023-10-19T11:18:33;14.30;99.90
16076;DHT22;8142;48.242;11.644;2023-10-19T11:21:01;14.30;99.90
16076;DHT22;8142;48.242;11.644;2023-10-19T11:23:39;14.40;99.90
16076;DHT22;8142;48.242;11.644;2023-10-19T11:26:06;14.40;99.90
16076;DHT22;8142;48.242;11.644;2023-10-19T11:28:33;14.50;99.90
16076;DHT22;8142;48.242;11.644;2023-10-19T11:31:17;14.50;99.90
16076;DHT22;8142;48.242;11.644;2023-10-19T11:33:45;14.50;99.90
16076;DHT22;8142;48.242;11.644;2023-10-19T11:36:12;14.60;99.90
16076;DHT22;8142;48.242;11.644;2023-10-19T11:38:41;14.60;99.90
16076;DHT22;8142;48.242;11.644;2023-10-19T11:41:08;14.60;99.90
16076;DHT22;8142;48.242;11.644;2023-10-19T11:43:35;14.60;99.90
16076;DHT22;8142;48.242;11.644;2023-10-19T11:46:02;14.60;99.90
16076;DHT22;8142;48.242;11.644;2023-10-19T11:48:33;14.70;99.90
16076;DHT22;8142;48.242;11.644;2023-10-19T11:51:00;14.70;99.90
16076;DHT22;8142;48.242;11.644;2023-10-19T11:53:33;14.70;99.90
16076;DHT22;8142;48.242;11.644;2023-10-19T11:56:01;14.70;99.90
16076;DHT22;8142;48.242;11.644;2023-10-19T11:58:30;14.80;99.90
16076;DHT22;8142;48.242;11.644;2023-10-19T12:00:59;14.70;99.90
16076;DHT22;8142;48.242;11.644;2023-10-19T12:03:25;14.80;99.90
16076;DHT22;8142;48.242;11.644;2023-10-19T12:05:51;14.80;99.90
16076;DHT22;8142;48.242;11.644;2023-10-19T12:08:21;14.80;99.90
16076;DHT22;8142;48.242;11.644;2023-10-19T12:10:47;14.90;99.90
16076;DHT22;8142;48.242;11.644;2023-10-19T12:13:13;14.90;99.90
16076;DHT22;8142;48.242;11.644;2023-10-19T12:15:39;15.00;99.90
16076;DHT22;8142;48.242;11.644;2023-10-19T12:18:04;15.00;99.90
16076;DHT22;8142;48.242;11.644;2023-10-19T12:20:33;15.10;99.90
16076;DHT22;8142;48.242;11.644;2023-10-19T12:23:01;15.10;99.90
16076;DHT22;8142;48.242;11.644;2023-10-19T12:25:27;15.10;99.90
16076;DHT22;8142;48.242;11.644;2023-10-19T12:27:59;15.10;99.90
16076;DHT22;8142;48.242;11.644;2023-10-19T12:30:25;15.10;99.90
16076;DHT22;8142;48.242;11.644;2023-10-19T12:32:54;15.20;99.90
16076;DHT22;8142;48.242;11.644;2023-10-19T12:35:20;15.30;99.90
16076;DHT22;8142;48.242;11.644;2023-10-19T12:37:50;15.30;99.90
16076;DHT22;8142;48.242;11.644;2023-10-19T12:40:20;15.30;99.90
16076;DHT22;8142;48.242;11.644;2023-10-19T12:42:55;15.30;99.90
16076;DHT22;8142;48.242;11.644;2023-10-19T12:45:25;15.30;99.90
16076;DHT22;8142;48.242;11.644;2023-10-19T12:47:53;15.40;99.90
16076;DHT22;8142;48.242;11.644;2023-10-19T12:50:21;15.30;99.90
16076;DHT22;8142;48.242;11.644;2023-10-19T12:52:50;15.40;99.90
16076;DHT22;8142;48.242;11.644;2023-10-19T12:55:17;15.40;99.90
16076;DHT22;8142;48.242;11.644;2023-10-19T12:57:43;15.40;99.90
16076;DHT22;8142;48.242;11.644;2023-10-19T13:00:10;15.50;99.90
16076;DHT22;8142;48.242;11.644;2023-10-19T13:03:13;15.50;99.90
16076;DHT22;8142;48.242;11.644;2023-10-19T13:05:42;15.60;99.90
16076;DHT22;8142;48.242;11.644;2023-10-19T13:08:13;15.60;99.90
16076;DHT22;8142;48.242;11.644;2023-10-19T13:10:41;15.70;99.90
16076;DHT22;8142;48.242;11.644;2023-10-19T13:13:11;15.80;99.90
16076;DHT22;8142;48.242;11.644;2023-10-19T13:15:39;15.70;99.90
16076;DHT22;8142;48.242;11.644;2023-10-19T13:18:06;15.80;99.90
16076;DHT22;8142;48.242;11.644;2023-10-19T13:20:33;15.80;99.90
16076;DHT22;8142;48.242;11.644;2023-10-19T13:23:09;15.80;99.90
16076;DHT22;8142;48.242;11.644;2023-10-19T13:25:41;15.90;99.90
16076;DHT22;8142;48.242;11.644;2023-10-19T13:28:13;15.90;99.90
16076;DHT22;8142;48.242;11.644;2023-10-19T13:30:48;15.90;99.90
16076;DHT22;8142;48.242;11.644;2023-10-19T13:33:15;15.90;99.90
16076;DHT22;8142;48.242;11.644;2023-10-19T13:35:43;15.90;99.90
16076;DHT22;8142;48.242;11.644;2023-10-19T13:38:10;15.90;99.90
16076;DHT22;8142;48.242;11.644;2023-10-19T13:40:37;16.00;99.90
16076;DHT22;8142;48.242;11.644;2023-10-19T13:43:04;15.90;99.90
16076;DHT22;8142;48.242;11.644;2023-10-19T13:45:36;15.90;99.90
16076;DHT22;8142;48.242;11.644;2023-10-19T13:48:05;15.90;99.90
16076;DHT22;8142;48.242;11.644;2023-10-19T13:50:33;15.90;99.90
16076;DHT22;8142;48.242;11.644;2023-10-19T13:53:00;15.90;99.90
16076;DHT22;8142;48.242;11.644;2023-10-19T13:55:27;15.80;99.90
16076;DHT22;8142;48.242;11.644;2023-10-19T13:57:54;15.80;99.90
16076;DHT22;8142;48.242;11.644;2023-10-19T14:00:22;15.90;99.90
16076;DHT22;8142;48.242;11.644;2023-10-19T14:03:02;15.80;99.90
16076;DHT22;8142;48.242;11.644;2023-10-19T14:05:37;15.80;99.90
16076;DHT22;8142;48.242;11.644;2023-10-19T14:08:04;15.70;99.90
16076;DHT22;8142;48.242;11.644;2023-10-19T14:10:31;15.70;99.90
16076;DHT22;8142;48.242;11.644;2023-10-19T14:12:57;15.70;99.90
16076;DHT22;8142;48.242;11.644;2023-10-19T14:15:22;15.60;99.90
16076;DHT22;8142;48.242;11.644;2023-10-19T14:17:49;15.60;99.90
16076;DHT22;8142;48.242;11.644;2023-10-19T14:20:16;15.60;99.90
16076;DHT22;8142;48.242;11.644;2023-10-19T14:22:44;15.60;99.90
16076;DHT22;8142;48.242;11.644;2023-10-19T14:25:12;15.50;99.90
16076;DHT22;8142;48.242;11.644;2023-10-19T14:27:42;15.50;99.90
16076;DHT22;8142;48.242;11.644;2023-10-19T14:30:13;15.50;99.90
16076;DHT22;8142;48.242;11.644;2023-10-19T14:32:46;15.50;99.90
16076;DHT22;8142;48.242;11.644;2023-10-19T14:35:14;15.50;99.90
16076;DHT22;8142;48.242;11.644;2023-10-19T14:37:41;15.40;99.90
16076;DHT22;8142;48.242;11.644;2023-10-19T14:40:14;15.40;99.90
16076;DHT22;8142;48.242;11.644;2023-10-19T14:42:42;15.30;99.90
16076;DHT22;8142;48.242;11.644;2023-10-19T14:45:09;15.30;99.90
16076;DHT22;8142;48.242;11.644;2023-10-19T14:47:39;15.20;99.90
16076;DHT22;8142;48.242;11.644;2023-10-19T14:50:12;15.20;99.90
16076;DHT22;8142;48.242;11.644;2023-10-19T14:52:48;15.20;99.90
16076;DHT22;8142;48.242;11.644;2023-10-19T14:55:15;15.20;99.90
16076;DHT22;8142;48.242;11.644;2023-10-19T14:57:43;15.10;99.90
16076;DHT22;8142;48.242;11.644;2023-10-19T15:00:12;15.10;99.90
16076;DHT22;8142;48.242;11.644;2023-10-19T15:02:43;15.10;99.90
16076;DHT22;8142;48.242;11.644;2023-10-19T15:05:11;15.00;99.90
16076;DHT22;8142;48.242;11.644;2023-10-19T15:07:40;15.00;99.90
16076;DHT22;8142;48.242;11.644;2023-10-19T15:10:08;15.00;99.90
16076;DHT22;8142;48.242;11.644;2023-10-19T15:12:41;15.00;99.90
16076;DHT22;8142;48.242;11.644;2023-10-19T15:15:07;14.90;99.90
16076;DHT22;8142;48.242;11.644;2023-10-19T15:17:46;14.90;99.90
16076;DHT22;8142;48.242;11.644;2023-10-19T15:20:14;14.80;99.90
16076;DHT22;8142;48.242;11.644;2023-10-19T15:22:44;14.80;99.90
16076;DHT22;8142;48.242;11.644;2023-10-19T15:25:11;14.70;99.90
16076;DHT22;8142;48.242;11.644;2023-10-19T15:27:42;14.60;99.90
16076;DHT22;8142;48.242;11.644;2023-10-19T15:30:10;14.50;99.90
16076;DHT22;8142;48.242;11.644;2023-10-19T15:32:38;14.40;99.90
16076;DHT22;8142;48.242;11.644;2023-10-19T15:35:04;14.30;99.90
16076;DHT22;8142;48.242;11.644;2023-10-19T15:37:30;14.30;99.90
16076;DHT22;8142;48.242;11.644;2023-10-19T15:39:56;14.20;99.90
16076;DHT22;8142;48.242;11.644;2023-10-19T15:42:22;14.10;99.90
16076;DHT22;8142;48.242;11.644;2023-10-19T15:44:50;14.20;99.90
16076;DHT22;8142;48.242;11.644;2023-10-19T15:47:16;14.20;99.90
16076;DHT22;8142;48.242;11.644;2023-10-19T15:49:50;14.20;99.90
16076;DHT22;8142;48.242;11.644;2023-10-19T15:52:20;14.20;99.90
16076;DHT22;8142;48.242;11.644;2023-10-19T15:54:46;14.10;99.90
16076;DHT22;8142;48.242;11.644;2023-10-19T15:57:12;14.20;99.90
16076;DHT22;8142;48.242;11.644;2023-10-19T15:59:38;14.10;99.90